sensor_id;sensor_type;location;lat;lon;timestamp;temperature;humidity
30134;DHT22;16946;49.984;10.672;2024-03-25T00:00:20;6.00;99.90
30134;DHT22;16946;49.984;10.672;2024-03-25T00:00:52;6.00;99.90
30134;DHT22;16946;49.984;10.672;2024-03-25T00:01:24;6.00;99.90
30134;DHT22;16946;49.984;10.672;2024-03-25T00:01:55;6.00;99.90
30134;DHT22;16946;49.984;10.672;2024-03-25T00:02:25;6.00;99.90
30134;DHT22;16946;49.984;10.672;2024-03-25T00:02:56;6.00;99.90
30134;DHT22;16946;49.984;10.672;2024-03-25T00:03:26;6.00;99.90
30134;DHT22;16946;49.984;10.672;2024-03-25T00:03:57;6.00;99.90
30134;DHT22;16946;49.984;10.672;2024-03-25T00:04:27;6.10;99.90
30134;DHT22;16946;49.984;10.672;2024-03-25T00:04:58;6.00;99.90
30134;DHT22;16946;49.984;10.672;2024-03-25T00:05:28;6.00;99.90
30134;DHT22;16946;49.984;10.672;2024-03-25T00:06:00;6.10;99.90
30134;DHT22;16946;49.984;10.672;2024-03-25T00:06:30;6.10;99.90
30134;DHT22;16946;49.984;10.672;2024-03-25T00:07:03;6.10;99.90
30134;DHT22;16946;49.984;10.672;2024-03-25T00:07:34;6.10;99.90
30134;DHT22;16946;49.984;10.672;2024-03-25T00:08:04;6.00;99.90
30134;DHT22;16946;49.984;10.672;2024-03-25T00:08:35;6.00;99.90
30134;DHT22;16946;49.984;10.672;2024-03-25T00:09:05;6.00;99.90
30134;DHT22;16946;49.984;10.672;2024-03-25T00:09:38;6.00;99.90
30134;DHT22;16946;49.984;10.672;2024-03-25T00:10:08;6.10;99.90
30134;DHT22;16946;49.984;10.672;2024-03-25T00:10:39;6.00;99.90
30134;DHT22;16946;49.984;10.672;2024-03-25T00:11:09;6.10;99.90
30134;DHT22;16946;49.984;10.672;2024-03-25T00:11:43;6.10;99.90
30134;DHT22;16946;49.984;10.672;2024-03-25T00:12:13;6.10;99.90
30134;DHT22;16946;49.984;10.672;2024-03-25T00:12:44;6.00;99.90
30134;DHT22;16946;49.984;10.672;2024-03-25T00:13:14;6.00;99.90
30134;DHT22;16946;49.984;10.672;2024-03-25T00:13:45;6.00;99.90
30134;DHT22;16946;49.984;10.672;2024-03-25T00:14:15;6.00;99.90
30134;DHT22;16946;49.984;10.672;2024-03-25T00:14:46;6.00;99.90
30134;DHT22;16946;49.984;10.672;2024-03-25T00:15:16;6.00;99.90
30134;DHT22;16946;49.984;10.672;2024-03-25T00:15:47;6.00;99.90
30134;DHT22;16946;49.984;10.672;2024-03-25T00:16:17;6.00;99.90
30134;DHT22;16946;49.984;10.672;2024-03-25T00:16:48;6.00;99.90
30134;DHT22;16946;49.984;10.672;2024-03-25T00:17:19;6.00;99.90
30134;DHT22;16946;49.984;10.672;2024-03-25T00:17:50;6.00;99.90
30134;DHT22;16946;49.984;10.672;2024-03-25T00:18:20;6.00;99.90
30134;DHT22;16946;49.984;10.672;2024-03-25T00:18:51;6.00;99.90
30134;DHT22;16946;49.984;10.672;2024-03-25T00:19:21;6.00;99.90
30134;DHT22;16946;49.984;10.672;2024-03-25T00:19:52;6.00;99.90
30134;DHT22;16946;49.984;10.672;2024-03-25T00:20:22;6.00;99.90
30134;DHT22;16946;49.984;10.672;2024-03-25T00:20:53;6.00;99.90
30134;DHT22;16946;49.984;10.672;2024-03-25T00:21:23;6.10;99.90
30134;DHT22;16946;49.984;10.672;2024-03-25T00:21:54;6.10;99.90
30134;DHT22;16946;49.984;10.672;2024-03-25T00:22:25;6.10;99.90
30134;DHT22;16946;49.984;10.672;2024-03-25T00:22:56;6.10;99.90
30134;DHT22;16946;49.984;10.672;2024-03-25T00:23:26;6.00;99.90
30134;DHT22;16946;49.984;10.672;2024-03-25T00:23:57;6.00;99.90
30134;DHT22;16946;49.984;10.672;2024-03-25T00:24:27;6.10;99.90
30134;DHT22;16946;49.984;10.672;2024-03-25T00:24:58;6.00;99.90
30134;DHT22;16946;49.984;10.672;2024-03-25T00:25:28;6.10;99.90
30134;DHT22;16946;49.984;10.672;2024-03-25T00:25:59;6.10;99.90
30134;DHT22;16946;49.984;10.672;2024-03-25T00:26:29;6.10;99.90
30134;DHT22;16946;49.984;10.672;2024-03-25T00:27:00;6.10;99.90
30134;DHT22;16946;49.984;10.672;2024-03-25T00:27:30;6.10;99.90
30134;DHT22;16946;49.984;10.672;2024-03-25T00:28:01;6.20;99.90
30134;DHT22;16946;49.984;10.672;2024-03-25T00:28:31;6.20;99.90
30134;DHT22;16946;49.984;10.672;2024-03-25T00:29:02;6.10;99.90
30134;DHT22;16946;49.984;10.672;2024-03-25T00:29:32;6.10;99.90
30134;DHT22;16946;49.984;10.672;2024-03-25T00:30:04;6.10;99.90
30134;DHT22;16946;49.984;10.672;2024-03-25T00:30:35;6.10;99.90
30134;DHT22;16946;49.984;10.672;2024-03-25T00:31:05;6.10;99.90
30134;DHT22;16946;49.984;10.672;2024-03-25T00:31:36;6.10;99.90
30134;DHT22;16946;49.984;10.672;2024-03-25T00:32:07;6.10;99.90
30134;DHT22;16946;49.984;10.672;2024-03-25T00:32:37;6.10;99.90
30134;DHT22;16946;49.984;10.672;2024-03-25T00:33:08;6.00;99.90
30134;DHT22;16946;49.984;10.672;2024-03-25T00:33:39;6.10;99.90
30134;DHT22;16946;49.984;10.672;2024-03-25T00:34:09;6.10;99.90
30134;DHT22;16946;49.984;10.672;2024-03-25T00:34:40;6.00;99.90
30134;DHT22;16946;49.984;10.672;2024-03-25T00:35:10;6.10;99.90
30134;DHT22;16946;49.984;10.672;2024-03-25T00:35:41;6.00;99.90
30134;DHT22;16946;49.984;10.672;2024-03-25T00:36:11;6.10;99.90
30134;DHT22;16946;49.984;10.672;2024-03-25T00:36:42;6.10;99.90
30134;DHT22;16946;49.984;10.672;2024-03-25T00:37:13;6.10;99.90
30134;DHT22;16946;49.984;10.672;2024-03-25T00:37:44;6.00;99.90
30134;DHT22;16946;49.984;10.672;2024-03-25T00:38:15;6.10;99.90
30134;DHT22;16946;49.984;10.672;2024-03-25T00:38:46;6.00;99.90
30134;DHT22;16946;49.984;10.672;2024-03-25T00:39:16;6.00;99.90
30134;DHT22;16946;49.984;10.672;2024-03-25T00:39:47;6.00;99.90
30134;DHT22;16946;49.984;10.672;2024-03-25T00:40:18;6.00;99.90
30134;DHT22;16946;49.984;10.672;2024-03-25T00:40:48;6.10;99.90
30134;DHT22;16946;49.984;10.672;2024-03-25T00:41:19;6.10;99.90
30134;DHT22;16946;49.984;10.672;2024-03-25T00:41:49;6.10;99.90
30134;DHT22;16946;49.984;10.672;2024-03-25T00:42:20;6.10;99.90
30134;DHT22;16946;49.984;10.672;2024-03-25T00:42:50;6.10;99.90
30134;DHT22;16946;49.984;10.672;2024-03-25T00:43:21;6.00;99.90
30134;DHT22;16946;49.984;10.672;2024-03-25T00:43:51;6.10;99.90
30134;DHT22;16946;49.984;10.672;2024-03-25T00:44:22;6.00;99.90
30134;DHT22;16946;49.984;10.672;2024-03-25T00:44:52;6.00;99.90
30134;DHT22;16946;49.984;10.672;2024-03-25T00:45:23;6.00;99.90
30134;DHT22;16946;49.984;10.672;2024-03-25T00:46:00;6.00;99.90
30134;DHT22;16946;49.984;10.672;2024-03-25T00:46:31;6.00;99.90
30134;DHT22;16946;49.984;10.672;2024-03-25T00:47:01;6.00;99.90
30134;DHT22;16946;49.984;10.672;2024-03-25T00:47:32;6.00;99.90
30134;DHT22;16946;49.984;10.672;2024-03-25T00:48:03;6.00;99.90
30134;DHT22;16946;49.984;10.672;2024-03-25T00:48:34;6.00;99.90
30134;DHT22;16946;49.984;10.672;2024-03-25T00:49:04;6.00;99.90
30134;DHT22;16946;49.984;10.672;2024-03-25T00:49:35;6.10;99.90
30134;DHT22;16946;49.984;10.672;2024-03-25T00:50:06;6.00;99.90
30134;DHT22;16946;49.984;10.672;2024-03-25T00:50:37;6.00;99.90
30134;DHT22;16946;49.984;10.672;2024-03-25T00:51:08;6.00;99.90
30134;DHT22;16946;49.984;10.672;2024-03-25T00:51:38;6.00;99.90
30134;DHT22;16946;49.984;10.672;2024-03-25T00:52:09;6.00;99.90
30134;DHT22;16946;49.984;10.672;2024-03-25T00:52:39;6.00;99.90
30134;DHT22;16946;49.984;10.672;2024-03-25T00:53:10;6.00;99.90
30134;DHT22;16946;49.984;10.672;2024-03-25T00:53:40;6.00;99.90
30134;DHT22;16946;49.984;10.672;2024-03-25T00:54:11;6.10;99.90
30134;DHT22;16946;49.984;10.672;2024-03-25T00:54:41;6.00;99.90
30134;DHT22;16946;49.984;10.672;2024-03-25T00:55:12;6.10;99.90
30134;DHT22;16946;49.984;10.672;2024-03-25T00:55:42;6.10;99.90
30134;DHT22;16946;49.984;10.672;2024-03-25T00:56:13;6.00;99.90
30134;DHT22;16946;49.984;10.672;2024-03-25T00:56:43;6.10;99.90
30134;DHT22;16946;49.984;10.672;2024-03-25T00:57:15;6.10;99.90
30134;DHT22;16946;49.984;10.672;2024-03-25T00:57:46;6.00;99.90
30134;DHT22;16946;49.984;10.672;2024-03-25T00:58:16;6.10;99.90
30134;DHT22;16946;49.984;10.672;2024-03-25T00:58:47;6.10;99.90
30134;DHT22;16946;49.984;10.672;2024-03-25T00:59:17;6.10;99.90
30134;DHT22;16946;49.984;10.672;2024-03-25T00:59:48;6.00;99.90
30134;DHT22;16946;49.984;10.672;2024-03-25T01:00:19;6.00;99.90
30134;DHT22;16946;49.984;10.672;2024-03-25T01:00:49;6.10;99.90
30134;DHT22;16946;49.984;10.672;2024-03-25T01:01:20;6.00;99.90
30134;DHT22;16946;49.984;10.672;2024-03-25T01:01:50;6.00;99.90
30134;DHT22;16946;49.984;10.672;2024-03-25T01:02:21;6.00;99.90
30134;DHT22;16946;49.984;10.672;2024-03-25T01:02:51;6.10;99.90
30134;DHT22;16946;49.984;10.672;2024-03-25T01:03:22;6.00;99.90
30134;DHT22;16946;49.984;10.672;2024-03-25T01:03:52;6.00;99.90
30134;DHT22;16946;49.984;10.672;2024-03-25T01:04:23;6.00;99.90
30134;DHT22;16946;49.984;10.672;2024-03-25T01:04:53;6.00;99.90
30134;DHT22;16946;49.984;10.672;2024-03-25T01:05:25;6.00;99.90
30134;DHT22;16946;49.984;10.672;2024-03-25T01:05:55;6.00;99.90
30134;DHT22;16946;49.984;10.672;2024-03-25T01:06:26;6.00;99.90
30134;DHT22;16946;49.984;10.672;2024-03-25T01:06:56;6.00;99.90
30134;DHT22;16946;49.984;10.672;2024-03-25T01:07:27;6.00;99.90
30134;DHT22;16946;49.984;10.672;2024-03-25T01:07:57;6.00;99.90
30134;DHT22;16946;49.984;10.672;2024-03-25T01:08:28;6.00;99.90
30134;DHT22;16946;49.984;10.672;2024-03-25T01:08:58;6.00;99.90
30134;DHT22;16946;49.984;10.672;2024-03-25T01:09:29;6.00;99.90
30134;DHT22;16946;49.984;10.672;2024-03-25T01:10:00;6.00;99.90
30134;DHT22;16946;49.984;10.672;2024-03-25T01:10:31;6.00;99.90
30134;DHT22;16946;49.984;10.672;2024-03-25T01:11:01;6.00;99.90
30134;DHT22;16946;49.984;10.672;2024-03-25T01:11:32;6.10;99.90
30134;DHT22;16946;49.984;10.672;2024-03-25T01:12:03;6.10;99.90
30134;DHT22;16946;49.984;10.672;2024-03-25T01:12:33;6.10;99.90
30134;DHT22;16946;49.984;10.672;2024-03-25T01:13:04;6.00;99.90
30134;DHT22;16946;49.984;10.672;2024-03-25T01:13:34;6.00;99.90
30134;DHT22;16946;49.984;10.672;2024-03-25T01:14:05;6.00;99.90
30134;DHT22;16946;49.984;10.672;2024-03-25T01:14:36;6.00;99.90
30134;DHT22;16946;49.984;10.672;2024-03-25T01:15:07;6.00;99.90
30134;DHT22;16946;49.984;10.672;2024-03-25T01:15:37;6.00;99.90
30134;DHT22;16946;49.984;10.672;2024-03-25T01:16:08;6.00;99.90
30134;DHT22;16946;49.984;10.672;2024-03-25T01:16:39;6.00;99.90
30134;DHT22;16946;49.984;10.672;2024-03-25T01:17:09;6.00;99.90
30134;DHT22;16946;49.984;10.672;2024-03-25T01:17:40;6.00;99.90
30134;DHT22;16946;49.984;10.672;2024-03-25T01:18:10;6.00;99.90
30134;DHT22;16946;49.984;10.672;2024-03-25T01:18:41;6.10;99.90
30134;DHT22;16946;49.984;10.672;2024-03-25T01:19:11;6.10;99.90
30134;DHT22;16946;49.984;10.672;2024-03-25T01:19:42;6.10;99.90
30134;DHT22;16946;49.984;10.672;2024-03-25T01:20:12;6.10;99.90
30134;DHT22;16946;49.984;10.672;2024-03-25T01:20:44;6.10;99.90
30134;DHT22;16946;49.984;10.672;2024-03-25T01:21:14;6.10;99.90
30134;DHT22;16946;49.984;10.672;2024-03-25T01:21:45;6.10;99.90
30134;DHT22;16946;49.984;10.672;2024-03-25T01:22:15;6.10;99.20
30134;DHT22;16946;49.984;10.672;2024-03-25T01:22:46;6.10;99.90
30134;DHT22;16946;49.984;10.672;2024-03-25T01:23:16;6.10;99.90
30134;DHT22;16946;49.984;10.672;2024-03-25T01:23:47;6.10;99.90
30134;DHT22;16946;49.984;10.672;2024-03-25T01:24:17;6.10;99.90
30134;DHT22;16946;49.984;10.672;2024-03-25T01:24:48;6.20;99.90
30134;DHT22;16946;49.984;10.672;2024-03-25T01:25:18;6.10;99.90
30134;DHT22;16946;49.984;10.672;2024-03-25T01:25:50;6.10;97.20
30134;DHT22;16946;49.984;10.672;2024-03-25T01:26:20;6.10;99.80
30134;DHT22;16946;49.984;10.672;2024-03-25T01:26:51;6.10;99.90
30134;DHT22;16946;49.984;10.672;2024-03-25T01:27:21;6.10;99.90
30134;DHT22;16946;49.984;10.672;2024-03-25T01:27:52;6.10;98.50
30134;DHT22;16946;49.984;10.672;2024-03-25T01:28:22;6.10;99.90
30134;DHT22;16946;49.984;10.672;2024-03-25T01:28:53;6.10;99.90
30134;DHT22;16946;49.984;10.672;2024-03-25T01:29:23;6.10;99.90
30134;DHT22;16946;49.984;10.672;2024-03-25T01:29:54;6.10;99.90
30134;DHT22;16946;49.984;10.672;2024-03-25T01:30:24;6.10;99.90
30134;DHT22;16946;49.984;10.672;2024-03-25T01:30:55;6.10;99.90
30134;DHT22;16946;49.984;10.672;2024-03-25T01:31:25;6.10;99.90
30134;DHT22;16946;49.984;10.672;2024-03-25T01:31:56;6.00;99.90
30134;DHT22;16946;49.984;10.672;2024-03-25T01:32:29;6.10;99.90
30134;DHT22;16946;49.984;10.672;2024-03-25T01:33:01;6.10;99.90
30134;DHT22;16946;49.984;10.672;2024-03-25T01:33:31;6.10;99.90
30134;DHT22;16946;49.984;10.672;2024-03-25T01:34:02;6.10;99.90
30134;DHT22;16946;49.984;10.672;2024-03-25T01:34:32;6.10;99.90
30134;DHT22;16946;49.984;10.672;2024-03-25T01:35:03;6.20;99.90
30134;DHT22;16946;49.984;10.672;2024-03-25T01:35:34;6.20;99.90
30134;DHT22;16946;49.984;10.672;2024-03-25T01:36:04;6.20;99.90
30134;DHT22;16946;49.984;10.672;2024-03-25T01:36:35;6.20;99.90
30134;DHT22;16946;49.984;10.672;2024-03-25T01:37:05;6.20;99.90
30134;DHT22;16946;49.984;10.672;2024-03-25T01:37:36;6.20;99.90
30134;DHT22;16946;49.984;10.672;2024-03-25T01:38:07;6.20;99.90
30134;DHT22;16946;49.984;10.672;2024-03-25T01:38:37;6.20;99.90
30134;DHT22;16946;49.984;10.672;2024-03-25T01:39:08;6.10;99.90
30134;DHT22;16946;49.984;10.672;2024-03-25T01:39:39;6.20;99.90
30134;DHT22;16946;49.984;10.672;2024-03-25T01:40:10;6.20;99.90
30134;DHT22;16946;49.984;10.672;2024-03-25T01:40:41;6.10;99.90
30134;DHT22;16946;49.984;10.672;2024-03-25T01:41:13;6.20;99.90
30134;DHT22;16946;49.984;10.672;2024-03-25T01:41:45;6.20;99.90
30134;DHT22;16946;49.984;10.672;2024-03-25T01:42:16;6.20;99.90
30134;DHT22;16946;49.984;10.672;2024-03-25T01:43:00;6.20;99.90
30134;DHT22;16946;49.984;10.672;2024-03-25T01:43:31;6.20;99.90
30134;DHT22;16946;49.984;10.672;2024-03-25T01:44:01;6.20;99.90
30134;DHT22;16946;49.984;10.672;2024-03-25T01:44:32;6.20;99.90
30134;DHT22;16946;49.984;10.672;2024-03-25T01:45:03;6.20;99.90
30134;DHT22;16946;49.984;10.672;2024-03-25T01:45:34;6.30;99.90
30134;DHT22;16946;49.984;10.672;2024-03-25T01:46:06;6.30;99.90
30134;DHT22;16946;49.984;10.672;2024-03-25T01:46:37;6.30;99.90
30134;DHT22;16946;49.984;10.672;2024-03-25T01:47:09;6.30;99.90
30134;DHT22;16946;49.984;10.672;2024-03-25T01:47:39;6.30;99.90
30134;DHT22;16946;49.984;10.672;2024-03-25T01:48:11;6.20;99.90
30134;DHT22;16946;49.984;10.672;2024-03-25T01:48:44;6.20;99.90
30134;DHT22;16946;49.984;10.672;2024-03-25T01:49:15;6.10;99.90
30134;DHT22;16946;49.984;10.672;2024-03-25T01:49:46;6.10;99.90
30134;DHT22;16946;49.984;10.672;2024-03-25T01:50:17;6.10;99.90
30134;DHT22;16946;49.984;10.672;2024-03-25T01:50:47;6.20;99.90
30134;DHT22;16946;49.984;10.672;2024-03-25T01:51:19;6.10;99.90
30134;DHT22;16946;49.984;10.672;2024-03-25T01:51:51;6.20;99.90
30134;DHT22;16946;49.984;10.672;2024-03-25T01:52:22;6.20;99.90
30134;DHT22;16946;49.984;10.672;2024-03-25T01:52:53;6.20;99.90
30134;DHT22;16946;49.984;10.672;2024-03-25T01:53:24;6.20;99.90
30134;DHT22;16946;49.984;10.672;2024-03-25T01:53:56;6.20;99.90
30134;DHT22;16946;49.984;10.672;2024-03-25T01:54:27;6.20;99.90
30134;DHT22;16946;49.984;10.672;2024-03-25T01:54:57;6.20;99.90
30134;DHT22;16946;49.984;10.672;2024-03-25T01:55:30;6.10;99.90
30134;DHT22;16946;49.984;10.672;2024-03-25T01:56:01;6.10;99.90
30134;DHT22;16946;49.984;10.672;2024-03-25T01:56:33;6.20;99.90
30134;DHT22;16946;49.984;10.672;2024-03-25T01:57:05;6.10;99.90
30134;DHT22;16946;49.984;10.672;2024-03-25T01:57:36;6.10;99.90
30134;DHT22;16946;49.984;10.672;2024-03-25T01:58:08;6.10;99.90
30134;DHT22;16946;49.984;10.672;2024-03-25T01:58:39;6.00;99.90
30134;DHT22;16946;49.984;10.672;2024-03-25T01:59:10;6.00;99.90
30134;DHT22;16946;49.984;10.672;2024-03-25T01:59:41;6.00;99.90
30134;DHT22;16946;49.984;10.672;2024-03-25T02:00:12;6.00;99.90
30134;DHT22;16946;49.984;10.672;2024-03-25T02:00:44;6.00;99.90
30134;DHT22;16946;49.984;10.672;2024-03-25T02:01:14;5.90;99.90
30134;DHT22;16946;49.984;10.672;2024-03-25T02:01:46;5.90;99.90
30134;DHT22;16946;49.984;10.672;2024-03-25T02:02:16;5.80;99.90
30134;DHT22;16946;49.984;10.672;2024-03-25T02:02:47;5.80;99.90
30134;DHT22;16946;49.984;10.672;2024-03-25T02:03:18;5.80;99.90
30134;DHT22;16946;49.984;10.672;2024-03-25T02:03:48;5.90;99.90
30134;DHT22;16946;49.984;10.672;2024-03-25T02:04:19;5.90;99.90
30134;DHT22;16946;49.984;10.672;2024-03-25T02:04:49;5.80;99.90
30134;DHT22;16946;49.984;10.672;2024-03-25T02:05:20;5.80;99.90
30134;DHT22;16946;49.984;10.672;2024-03-25T02:05:53;5.80;99.90
30134;DHT22;16946;49.984;10.672;2024-03-25T02:06:27;5.80;99.90
30134;DHT22;16946;49.984;10.672;2024-03-25T02:06:58;5.70;99.90
30134;DHT22;16946;49.984;10.672;2024-03-25T02:07:30;5.70;99.90
30134;DHT22;16946;49.984;10.672;2024-03-25T02:08:02;5.70;99.90
30134;DHT22;16946;49.984;10.672;2024-03-25T02:08:33;5.80;99.90
30134;DHT22;16946;49.984;10.672;2024-03-25T02:09:04;5.80;99.90
30134;DHT22;16946;49.984;10.672;2024-03-25T02:09:35;5.90;99.90
30134;DHT22;16946;49.984;10.672;2024-03-25T02:10:07;5.90;99.90
30134;DHT22;16946;49.984;10.672;2024-03-25T02:10:40;5.90;99.90
30134;DHT22;16946;49.984;10.672;2024-03-25T02:11:11;5.90;99.90
30134;DHT22;16946;49.984;10.672;2024-03-25T02:11:42;5.90;99.90
30134;DHT22;16946;49.984;10.672;2024-03-25T02:12:13;5.90;99.90
30134;DHT22;16946;49.984;10.672;2024-03-25T02:12:45;5.90;99.90
30134;DHT22;16946;49.984;10.672;2024-03-25T02:13:16;5.90;99.90
30134;DHT22;16946;49.984;10.672;2024-03-25T02:13:47;6.00;99.90
30134;DHT22;16946;49.984;10.672;2024-03-25T02:14:17;6.00;99.90
30134;DHT22;16946;49.984;10.672;2024-03-25T02:14:48;6.00;99.90
30134;DHT22;16946;49.984;10.672;2024-03-25T02:15:18;6.00;99.90
30134;DHT22;16946;49.984;10.672;2024-03-25T02:15:49;6.00;99.90
30134;DHT22;16946;49.984;10.672;2024-03-25T02:16:21;6.10;99.90
30134;DHT22;16946;49.984;10.672;2024-03-25T02:16:52;6.10;99.90
30134;DHT22;16946;49.984;10.672;2024-03-25T02:17:22;6.10;99.90
30134;DHT22;16946;49.984;10.672;2024-03-25T02:17:53;6.20;99.90
30134;DHT22;16946;49.984;10.672;2024-03-25T02:18:23;6.20;99.90
30134;DHT22;16946;49.984;10.672;2024-03-25T02:18:54;6.20;99.90
30134;DHT22;16946;49.984;10.672;2024-03-25T02:19:25;6.20;99.90
30134;DHT22;16946;49.984;10.672;2024-03-25T02:19:55;6.20;99.90
30134;DHT22;16946;49.984;10.672;2024-03-25T02:20:26;6.20;99.90
30134;DHT22;16946;49.984;10.672;2024-03-25T02:20:57;6.20;99.60
30134;DHT22;16946;49.984;10.672;2024-03-25T02:21:28;6.10;99.90
30134;DHT22;16946;49.984;10.672;2024-03-25T02:21:59;6.10;97.80
30134;DHT22;16946;49.984;10.672;2024-03-25T02:22:30;6.10;99.90
30134;DHT22;16946;49.984;10.672;2024-03-25T02:23:01;6.10;99.90
30134;DHT22;16946;49.984;10.672;2024-03-25T02:23:32;6.10;99.90
30134;DHT22;16946;49.984;10.672;2024-03-25T02:24:05;6.10;99.90
30134;DHT22;16946;49.984;10.672;2024-03-25T02:24:38;6.10;99.90
30134;DHT22;16946;49.984;10.672;2024-03-25T02:25:10;6.10;99.90
30134;DHT22;16946;49.984;10.672;2024-03-25T02:25:42;6.10;99.90
30134;DHT22;16946;49.984;10.672;2024-03-25T02:26:13;6.10;99.90
30134;DHT22;16946;49.984;10.672;2024-03-25T02:26:44;6.10;99.90
30134;DHT22;16946;49.984;10.672;2024-03-25T02:27:14;6.10;99.90
30134;DHT22;16946;49.984;10.672;2024-03-25T02:27:45;6.20;99.90
30134;DHT22;16946;49.984;10.672;2024-03-25T02:28:16;6.20;99.90
30134;DHT22;16946;49.984;10.672;2024-03-25T02:28:47;6.20;99.90
30134;DHT22;16946;49.984;10.672;2024-03-25T02:29:17;6.20;99.90
30134;DHT22;16946;49.984;10.672;2024-03-25T02:29:47;6.20;99.90
30134;DHT22;16946;49.984;10.672;2024-03-25T02:30:18;6.30;99.90
30134;DHT22;16946;49.984;10.672;2024-03-25T02:30:48;6.20;99.90
30134;DHT22;16946;49.984;10.672;2024-03-25T02:31:19;6.20;99.90
30134;DHT22;16946;49.984;10.672;2024-03-25T02:31:49;6.20;99.90
30134;DHT22;16946;49.984;10.672;2024-03-25T02:32:23;6.10;99.90
30134;DHT22;16946;49.984;10.672;2024-03-25T02:32:53;6.10;99.90
30134;DHT22;16946;49.984;10.672;2024-03-25T02:33:24;6.10;99.90
30134;DHT22;16946;49.984;10.672;2024-03-25T02:33:54;6.10;99.90
30134;DHT22;16946;49.984;10.672;2024-03-25T02:34:25;6.10;99.90
30134;DHT22;16946;49.984;10.672;2024-03-25T02:34:56;6.00;99.90
30134;DHT22;16946;49.984;10.672;2024-03-25T02:35:27;5.90;99.90
30134;DHT22;16946;49.984;10.672;2024-03-25T02:35:57;5.90;99.90
30134;DHT22;16946;49.984;10.672;2024-03-25T02:36:28;5.90;99.90
30134;DHT22;16946;49.984;10.672;2024-03-25T02:36:59;5.90;99.90
30134;DHT22;16946;49.984;10.672;2024-03-25T02:37:30;5.90;99.90
30134;DHT22;16946;49.984;10.672;2024-03-25T02:38:00;5.90;99.90
30134;DHT22;16946;49.984;10.672;2024-03-25T02:38:31;5.80;99.90
30134;DHT22;16946;49.984;10.672;2024-03-25T02:39:03;5.80;99.90
30134;DHT22;16946;49.984;10.672;2024-03-25T02:39:35;5.80;99.90
30134;DHT22;16946;49.984;10.672;2024-03-25T02:40:07;5.80;99.90
30134;DHT22;16946;49.984;10.672;2024-03-25T02:40:38;5.80;99.90
30134;DHT22;16946;49.984;10.672;2024-03-25T02:41:09;5.80;99.90
30134;DHT22;16946;49.984;10.672;2024-03-25T02:41:39;5.80;99.90
30134;DHT22;16946;49.984;10.672;2024-03-25T02:42:10;5.80;99.90
30134;DHT22;16946;49.984;10.672;2024-03-25T02:42:40;5.80;99.90
30134;DHT22;16946;49.984;10.672;2024-03-25T02:43:11;5.80;99.90
30134;DHT22;16946;49.984;10.672;2024-03-25T02:43:42;5.70;99.90
30134;DHT22;16946;49.984;10.672;2024-03-25T02:44:13;5.80;99.90
30134;DHT22;16946;49.984;10.672;2024-03-25T02:44:44;5.70;99.90
30134;DHT22;16946;49.984;10.672;2024-03-25T02:45:15;5.70;99.90
30134;DHT22;16946;49.984;10.672;2024-03-25T02:45:46;5.70;99.90
30134;DHT22;16946;49.984;10.672;2024-03-25T02:46:16;5.70;99.90
30134;DHT22;16946;49.984;10.672;2024-03-25T02:46:47;5.80;99.90
30134;DHT22;16946;49.984;10.672;2024-03-25T02:47:18;5.70;99.90
30134;DHT22;16946;49.984;10.672;2024-03-25T02:47:50;5.70;99.90
30134;DHT22;16946;49.984;10.672;2024-03-25T02:48:21;5.70;99.90
30134;DHT22;16946;49.984;10.672;2024-03-25T02:48:51;5.60;99.90
30134;DHT22;16946;49.984;10.672;2024-03-25T02:49:22;5.70;99.90
30134;DHT22;16946;49.984;10.672;2024-03-25T02:49:52;5.70;99.90
30134;DHT22;16946;49.984;10.672;2024-03-25T02:50:23;5.70;99.90
30134;DHT22;16946;49.984;10.672;2024-03-25T02:50:53;5.80;99.90
30134;DHT22;16946;49.984;10.672;2024-03-25T02:51:24;5.80;99.90
30134;DHT22;16946;49.984;10.672;2024-03-25T02:51:54;5.70;99.90
30134;DHT22;16946;49.984;10.672;2024-03-25T02:52:25;5.70;99.90
30134;DHT22;16946;49.984;10.672;2024-03-25T02:52:56;5.70;99.90
30134;DHT22;16946;49.984;10.672;2024-03-25T02:53:26;5.70;99.90
30134;DHT22;16946;49.984;10.672;2024-03-25T02:53:57;5.70;99.90
30134;DHT22;16946;49.984;10.672;2024-03-25T02:54:27;5.80;99.90
30134;DHT22;16946;49.984;10.672;2024-03-25T02:54:58;5.80;99.90
30134;DHT22;16946;49.984;10.672;2024-03-25T02:55:28;5.80;99.90
30134;DHT22;16946;49.984;10.672;2024-03-25T02:55:59;5.90;99.90
30134;DHT22;16946;49.984;10.672;2024-03-25T02:56:29;5.80;99.90
30134;DHT22;16946;49.984;10.672;2024-03-25T02:57:00;5.80;99.90
30134;DHT22;16946;49.984;10.672;2024-03-25T02:57:30;5.90;99.90
30134;DHT22;16946;49.984;10.672;2024-03-25T02:58:01;6.00;99.90
30134;DHT22;16946;49.984;10.672;2024-03-25T02:58:32;6.00;99.90
30134;DHT22;16946;49.984;10.672;2024-03-25T02:59:02;6.10;99.90
30134;DHT22;16946;49.984;10.672;2024-03-25T02:59:33;6.10;99.90
30134;DHT22;16946;49.984;10.672;2024-03-25T03:00:04;6.10;99.90
30134;DHT22;16946;49.984;10.672;2024-03-25T03:00:35;6.20;99.90
30134;DHT22;16946;49.984;10.672;2024-03-25T03:01:05;6.10;99.90
30134;DHT22;16946;49.984;10.672;2024-03-25T03:01:35;6.10;99.90
30134;DHT22;16946;49.984;10.672;2024-03-25T03:02:06;6.20;99.90
30134;DHT22;16946;49.984;10.672;2024-03-25T03:02:36;6.10;99.90
30134;DHT22;16946;49.984;10.672;2024-03-25T03:03:07;6.10;99.90
30134;DHT22;16946;49.984;10.672;2024-03-25T03:03:38;6.10;99.90
30134;DHT22;16946;49.984;10.672;2024-03-25T03:04:08;6.10;99.90
30134;DHT22;16946;49.984;10.672;2024-03-25T03:04:39;6.10;99.90
30134;DHT22;16946;49.984;10.672;2024-03-25T03:05:09;6.10;99.90
30134;DHT22;16946;49.984;10.672;2024-03-25T03:05:39;6.00;99.90
30134;DHT22;16946;49.984;10.672;2024-03-25T03:06:10;6.10;99.90
30134;DHT22;16946;49.984;10.672;2024-03-25T03:06:41;6.10;99.90
30134;DHT22;16946;49.984;10.672;2024-03-25T03:07:11;6.00;99.90
30134;DHT22;16946;49.984;10.672;2024-03-25T03:07:42;6.10;99.90
30134;DHT22;16946;49.984;10.672;2024-03-25T03:08:12;6.00;99.90
30134;DHT22;16946;49.984;10.672;2024-03-25T03:08:43;6.00;99.90
30134;DHT22;16946;49.984;10.672;2024-03-25T03:09:13;6.00;99.90
30134;DHT22;16946;49.984;10.672;2024-03-25T03:09:44;6.10;99.90
30134;DHT22;16946;49.984;10.672;2024-03-25T03:10:14;6.10;99.90
30134;DHT22;16946;49.984;10.672;2024-03-25T03:10:46;6.00;99.90
30134;DHT22;16946;49.984;10.672;2024-03-25T03:11:16;6.00;99.90
30134;DHT22;16946;49.984;10.672;2024-03-25T03:11:47;6.10;99.90
30134;DHT22;16946;49.984;10.672;2024-03-25T03:12:17;6.00;99.90
30134;DHT22;16946;49.984;10.672;2024-03-25T03:12:48;6.10;99.90
30134;DHT22;16946;49.984;10.672;2024-03-25T03:13:18;6.10;99.90
30134;DHT22;16946;49.984;10.672;2024-03-25T03:13:49;6.20;99.90
30134;DHT22;16946;49.984;10.672;2024-03-25T03:14:19;6.20;99.90
30134;DHT22;16946;49.984;10.672;2024-03-25T03:14:50;6.10;99.90